createdAt,value
2023-04-02T00:01:33.621Z,4.70
2023-04-02T00:04:03.551Z,4.70
2023-04-02T00:06:40.210Z,6.30
2023-04-02T00:09:11.090Z,7.10
2023-04-02T00:11:42.258Z,4.10
2023-04-02T00:14:17.292Z,5.10
2023-04-02T00:16:45.527Z,4.80
2023-04-02T00:19:18.514Z,5.30
2023-04-02T00:21:48.116Z,5.70
2023-04-02T00:24:18.203Z,4.90
2023-04-02T00:26:47.234Z,4.90
2023-04-02T00:29:15.955Z,4.10
2023-04-02T00:31:45.764Z,4.10
2023-04-02T00:34:32.024Z,5.40
2023-04-02T00:36:59.956Z,5.00
2023-04-02T00:41:03.362Z,5.80
2023-04-02T00:43:31.881Z,6.20
2023-04-02T00:46:04.117Z,5.10
2023-04-02T00:48:32.114Z,7.10
2023-04-02T00:51:00.485Z,4.50
2023-04-02T00:53:28.793Z,5.50
2023-04-02T00:55:59.117Z,5.50
2023-04-02T00:58:28.105Z,4.30
2023-04-02T01:00:58.875Z,5.80
2023-04-02T01:03:30.136Z,5.20
2023-04-02T01:06:02.900Z,5.20
2023-04-02T01:08:38.205Z,5.30
2023-04-02T01:11:28.883Z,8.00
2023-04-02T01:14:07.053Z,7.90
2023-04-02T01:16:37.880Z,6.30
2023-04-02T01:19:14.945Z,9.20
2023-04-02T01:21:45.913Z,7.60
2023-04-02T01:24:16.009Z,7.90
2023-04-02T01:26:48.418Z,7.80
2023-04-02T01:29:20.442Z,5.70
2023-04-02T01:31:48.602Z,6.00
2023-04-02T01:34:17.661Z,7.50
2023-04-02T01:36:49.779Z,4.00
2023-04-02T01:39:36.886Z,7.40
2023-04-02T01:42:21.304Z,5.40
2023-04-02T01:44:50.976Z,5.10
2023-04-02T01:47:20.420Z,5.20
2023-04-02T01:49:48.333Z,6.70
2023-04-02T01:52:17.778Z,4.30
2023-04-02T01:54:47.378Z,6.90
2023-04-02T01:57:15.507Z,10.70
2023-04-02T01:59:43.460Z,6.10
2023-04-02T02:02:12.537Z,5.20
2023-04-02T02:04:41.185Z,6.90
2023-04-02T02:07:14.409Z,4.50
2023-04-02T02:09:43.948Z,7.00
2023-04-02T02:12:15.428Z,4.80
2023-04-02T02:14:48.034Z,6.60
2023-04-02T02:17:16.534Z,4.60
2023-04-02T02:19:48.096Z,5.60
2023-04-02T02:22:30.022Z,5.40
2023-04-02T02:24:59.005Z,4.80
2023-04-02T02:27:26.907Z,7.10
2023-04-02T02:30:02.147Z,5.00
2023-04-02T02:32:31.356Z,5.80
2023-04-02T02:35:02.861Z,5.40
2023-04-02T02:37:32.631Z,6.00
2023-04-02T02:40:01.338Z,5.60
2023-04-02T02:42:37.102Z,5.40
2023-04-02T02:45:07.034Z,7.80
2023-04-02T02:47:35.204Z,7.90
2023-04-02T02:50:05.767Z,7.60
2023-04-02T02:52:37.304Z,5.70
2023-04-02T02:55:15.599Z,7.40
2023-04-02T02:58:12.520Z,6.60
2023-04-02T03:00:46.286Z,6.20
2023-04-02T03:03:23.273Z,6.10
2023-04-02T03:06:02.850Z,5.20
2023-04-02T03:08:45.113Z,5.60
2023-04-02T03:11:24.237Z,5.50
2023-04-02T03:13:52.300Z,6.00
2023-04-02T03:16:24.002Z,6.10
2023-04-02T03:18:54.318Z,5.10
2023-04-02T03:21:22.775Z,4.40
2023-04-02T03:23:53.906Z,5.30
2023-04-02T03:26:28.104Z,5.90
2023-04-02T03:31:26.662Z,5.10
2023-04-02T03:33:56.995Z,4.20
2023-04-02T03:36:33.861Z,5.40
2023-04-02T03:39:01.734Z,6.30
2023-04-02T03:41:32.084Z,4.50
2023-04-02T03:44:01.095Z,5.40
2023-04-02T03:46:49.355Z,5.50
2023-04-02T03:49:17.474Z,5.20
2023-04-02T03:51:58.066Z,4.40
2023-04-02T03:54:26.251Z,4.80
2023-04-02T03:56:54.786Z,5.50
2023-04-02T03:59:27.509Z,5.90
2023-04-02T04:01:57.157Z,5.20
2023-04-02T04:04:26.224Z,6.10
2023-04-02T04:06:54.093Z,6.90
2023-04-02T04:09:27.389Z,5.10
2023-04-02T04:12:00.350Z,5.10
2023-04-02T04:14:31.318Z,5.10
2023-04-02T04:17:04.609Z,7.30
2023-04-02T04:19:45.803Z,5.90
2023-04-02T04:22:17.975Z,6.20
2023-04-02T04:24:46.969Z,5.30
2023-04-02T04:27:18.764Z,6.20
2023-04-02T04:29:58.156Z,5.70
2023-04-02T04:32:32.214Z,5.70
2023-04-02T04:35:22.577Z,5.00
2023-04-02T04:37:53.810Z,9.20
2023-04-02T04:40:26.286Z,7.30
2023-04-02T04:42:58.396Z,7.70
2023-04-02T04:45:28.260Z,7.60
2023-04-02T04:48:16.402Z,7.50
2023-04-02T04:50:52.842Z,8.30
2023-04-02T04:53:22.458Z,6.50
2023-04-02T04:56:16.060Z,6.40
2023-04-02T04:59:08.109Z,5.70
2023-04-02T05:01:45.574Z,5.30
2023-04-02T05:04:21.218Z,5.00
2023-04-02T05:06:56.399Z,5.00
2023-04-02T05:09:33.210Z,7.30
2023-04-02T05:12:07.230Z,6.90
2023-04-02T05:14:43.942Z,3.80
2023-04-02T05:17:23.235Z,4.40
2023-04-02T05:20:16.379Z,5.00
2023-04-02T05:22:45.805Z,5.80
2023-04-02T05:25:27.547Z,5.80
2023-04-02T05:27:59.185Z,4.20
2023-04-02T05:30:27.100Z,5.90
2023-04-02T05:33:08.031Z,6.00
2023-04-02T05:35:37.594Z,5.70
2023-04-02T05:38:06.766Z,4.90
2023-04-02T05:40:36.403Z,4.70
2023-04-02T05:43:04.359Z,5.10
2023-04-02T05:45:37.474Z,5.00
2023-04-02T05:48:26.338Z,5.30
2023-04-02T05:50:55.702Z,6.60
2023-04-02T05:53:34.568Z,5.40
2023-04-02T05:56:05.627Z,5.10
2023-04-02T05:58:39.133Z,4.90
2023-04-02T06:01:34.672Z,5.20
2023-04-02T06:04:18.131Z,4.80
2023-04-02T06:06:50.026Z,4.50
2023-04-02T06:09:24.404Z,5.30
2023-04-02T06:11:56.942Z,5.70
2023-04-02T06:14:25.458Z,4.20
2023-04-02T06:16:53.572Z,4.00
2023-04-02T06:19:29.509Z,3.30
2023-04-02T06:22:01.066Z,3.80
2023-04-02T06:24:29.018Z,4.00
2023-04-02T06:26:58.110Z,3.50
2023-04-02T06:29:40.342Z,4.00
2023-04-02T06:32:13.309Z,5.80
2023-04-02T06:34:44.452Z,3.10
2023-04-02T06:37:35.358Z,3.20
2023-04-02T06:40:36.383Z,3.50
2023-04-02T06:43:43.250Z,4.10
2023-04-02T06:46:36.005Z,3.70
2023-04-02T06:49:27.396Z,2.90
2023-04-02T06:51:59.154Z,4.30
2023-04-02T06:54:27.935Z,3.30
2023-04-02T06:57:00.079Z,3.60
2023-04-02T06:59:37.506Z,3.30
2023-04-02T07:02:17.734Z,4.30
2023-04-02T07:04:46.194Z,3.60
2023-04-02T07:07:14.907Z,3.90
2023-04-02T07:09:44.998Z,5.10
2023-04-02T07:12:13.298Z,4.20
2023-04-02T07:14:42.074Z,4.40
2023-04-02T07:17:14.461Z,4.20
2023-04-02T07:19:44.314Z,4.00
2023-04-02T07:22:12.605Z,4.20
2023-04-02T07:24:42.822Z,4.80
2023-04-02T07:27:13.405Z,4.50
2023-04-02T07:29:44.970Z,4.40
2023-04-02T07:32:13.117Z,4.00
2023-04-02T07:34:41.242Z,4.60
2023-04-02T07:37:14.738Z,4.50
2023-04-02T07:39:42.732Z,3.40
2023-04-02T07:42:10.737Z,3.50
2023-04-02T07:44:38.565Z,4.50
2023-04-02T07:47:06.633Z,3.40
2023-04-02T07:49:36.261Z,4.90
2023-04-02T07:52:04.354Z,3.20
2023-04-02T07:54:32.453Z,3.60
2023-04-02T07:57:00.912Z,4.20
2023-04-02T07:59:28.868Z,3.80
2023-04-02T08:01:58.018Z,3.70
2023-04-02T08:04:26.980Z,3.80
2023-04-02T08:06:55.882Z,3.30
2023-04-02T08:09:24.363Z,3.40
2023-04-02T08:11:54.884Z,3.40
2023-04-02T08:14:23.179Z,3.80
2023-04-02T08:16:51.785Z,3.40
2023-04-02T08:19:21.318Z,2.70
2023-04-02T08:21:51.703Z,2.30
2023-04-02T08:24:19.851Z,3.20
2023-04-02T08:26:48.830Z,2.60
2023-04-02T08:29:16.976Z,2.50
2023-04-02T08:31:45.445Z,2.40
2023-04-02T08:34:13.342Z,2.90
2023-04-02T08:36:41.589Z,1.80
2023-04-02T08:39:12.792Z,2.20
2023-04-02T08:41:45.710Z,2.00
2023-04-02T08:44:22.599Z,5.20
2023-04-02T08:46:59.254Z,3.60
2023-04-02T08:49:46.590Z,4.00
2023-04-02T08:52:22.131Z,4.10
2023-04-02T08:54:49.910Z,2.50
2023-04-02T08:57:17.843Z,2.20
2023-04-02T08:59:47.185Z,2.50
2023-04-02T09:02:19.128Z,2.90
2023-04-02T09:04:47.290Z,2.40
2023-04-02T09:07:16.721Z,2.40
2023-04-02T09:09:46.534Z,2.10
2023-04-02T09:12:17.881Z,3.10
2023-04-02T09:14:49.642Z,2.30
2023-04-02T09:17:17.439Z,2.30
2023-04-02T09:20:08.808Z,2.80
2023-04-02T09:22:36.627Z,2.70
2023-04-02T09:25:05.005Z,2.90
2023-04-02T09:27:36.626Z,3.60
2023-04-02T09:30:21.349Z,3.20
2023-04-02T09:32:50.091Z,3.80
2023-04-02T09:35:26.272Z,3.00
2023-04-02T09:38:07.377Z,2.40
2023-04-02T09:40:42.364Z,4.20
2023-04-02T09:43:12.049Z,1.90
2023-04-02T09:45:41.265Z,2.90
2023-04-02T09:48:36.162Z,2.70
2023-04-02T09:51:05.759Z,3.20
2023-04-02T09:53:34.592Z,3.40
2023-04-02T09:56:10.252Z,2.80
2023-04-02T09:58:38.599Z,3.60
2023-04-02T10:01:39.234Z,5.00
2023-04-02T10:04:27.365Z,3.10
2023-04-02T10:06:58.228Z,3.50
2023-04-02T10:09:29.742Z,4.60
2023-04-02T10:11:57.828Z,3.40
2023-04-02T10:14:28.570Z,3.20
2023-04-02T10:17:16.843Z,3.50
2023-04-02T10:19:48.517Z,4.30
2023-04-02T10:22:17.232Z,3.30
2023-04-02T10:24:45.401Z,4.70
2023-04-02T10:27:17.237Z,3.70
2023-04-02T10:30:05.213Z,4.00
2023-04-02T10:32:37.645Z,4.40
2023-04-02T10:35:11.821Z,5.40
2023-04-02T10:37:39.747Z,4.30
2023-04-02T10:40:22.112Z,9.80
2023-04-02T10:42:53.341Z,6.10
2023-04-02T10:45:31.510Z,7.10
2023-04-02T10:48:00.920Z,6.60
2023-04-02T10:50:48.051Z,6.90
2023-04-02T10:53:16.695Z,7.10
2023-04-02T10:55:45.892Z,10.50
2023-04-02T10:58:19.508Z,7.50
2023-04-02T11:01:08.426Z,7.60
2023-04-02T11:03:40.142Z,6.90
2023-04-02T11:06:24.288Z,7.80
2023-04-02T11:08:54.217Z,6.40
2023-04-02T11:11:23.023Z,6.60
2023-04-02T11:13:52.793Z,6.80
2023-04-02T11:16:21.149Z,7.90
2023-04-02T11:19:08.058Z,7.20
2023-04-02T11:21:57.185Z,7.60
2023-04-02T11:24:30.085Z,9.00
2023-04-02T11:27:11.198Z,8.40
2023-04-02T11:29:39.010Z,8.40
2023-04-02T11:32:13.059Z,8.10
2023-04-02T11:34:40.910Z,8.40
2023-04-02T11:37:09.687Z,8.00
2023-04-02T11:39:56.940Z,8.50
2023-04-02T11:42:29.569Z,9.10
2023-04-02T11:45:16.312Z,9.10
2023-04-02T11:47:44.239Z,8.30
2023-04-02T11:50:27.694Z,8.00
2023-04-02T11:52:55.843Z,8.00
2023-04-02T11:55:29.789Z,7.40
2023-04-02T11:58:24.105Z,8.70
2023-04-02T12:01:07.984Z,8.40
2023-04-02T12:04:08.615Z,7.60
2023-04-02T12:07:00.423Z,7.30
2023-04-02T12:09:29.071Z,9.20
2023-04-02T12:11:57.930Z,8.00
2023-04-02T12:14:37.955Z,7.70
2023-04-02T12:17:13.743Z,14.10
2023-04-02T12:19:46.138Z,22.80
2023-04-02T12:22:21.747Z,39.70
2023-04-02T12:24:50.003Z,19.10
2023-04-02T12:27:22.452Z,11.10
2023-04-02T12:29:51.169Z,7.80
2023-04-02T12:32:20.241Z,9.00
2023-04-02T12:34:48.044Z,3.00
2023-04-02T12:37:19.544Z,2.20
2023-04-02T12:39:54.404Z,3.10
2023-04-02T12:42:26.802Z,3.30
2023-04-02T12:44:54.756Z,1.80
2023-04-02T12:47:28.000Z,1.10
2023-04-02T12:49:56.580Z,1.60
2023-04-02T12:52:28.632Z,1.60
2023-04-02T12:58:04.030Z,0.60
2023-04-02T13:00:33.353Z,0.80
2023-04-02T13:03:19.242Z,2.20
2023-04-02T13:08:25.672Z,1.10
2023-04-02T13:13:30.297Z,0.70
2023-04-02T13:18:34.600Z,1.30
2023-04-02T13:21:06.616Z,1.10
2023-04-02T13:23:36.729Z,0.70
2023-04-02T13:26:23.246Z,2.10
2023-04-02T13:29:02.012Z,2.00
2023-04-02T13:31:32.156Z,1.00
2023-04-02T13:34:00.207Z,1.20
2023-04-02T13:36:29.484Z,1.00
2023-04-02T13:38:58.056Z,1.40
2023-04-02T13:41:34.980Z,1.40
2023-04-02T13:44:03.366Z,1.20
2023-04-02T13:46:33.014Z,2.60
2023-04-02T13:49:03.334Z,3.00
2023-04-02T13:51:37.345Z,2.80
2023-04-02T13:54:19.131Z,4.00
2023-04-02T13:56:47.268Z,4.10
2023-04-02T13:59:15.592Z,4.10
2023-04-02T14:01:45.589Z,8.10
2023-04-02T14:04:18.739Z,2.80
2023-04-02T14:07:06.732Z,3.10
2023-04-02T14:10:01.911Z,4.40
2023-04-02T14:12:36.070Z,3.60
2023-04-02T14:15:11.073Z,3.30
2023-04-02T14:17:47.728Z,3.40
2023-04-02T14:20:32.128Z,4.50
2023-04-02T14:23:10.992Z,4.90
2023-04-02T14:25:45.882Z,4.20
2023-04-02T14:28:23.853Z,5.60
2023-04-02T14:30:59.617Z,2.90
2023-04-02T14:33:40.069Z,4.20
2023-04-02T14:36:47.617Z,4.60
2023-04-02T14:39:31.004Z,4.70
2023-04-02T14:42:02.226Z,3.80
2023-04-02T14:44:34.488Z,3.70
2023-04-02T14:47:29.480Z,4.10
2023-04-02T14:50:01.643Z,7.20
2023-04-02T14:52:30.137Z,12.00
2023-04-02T14:55:07.262Z,5.40
2023-04-02T14:57:44.623Z,5.40
2023-04-02T15:00:28.374Z,6.20
2023-04-02T15:03:13.034Z,5.40
2023-04-02T15:05:45.986Z,8.20
2023-04-02T15:08:35.372Z,5.70
2023-04-02T15:11:08.073Z,4.80
2023-04-02T15:13:38.247Z,3.40
2023-04-02T15:16:11.494Z,2.40
2023-04-02T15:18:40.686Z,2.70
2023-04-02T15:21:29.485Z,6.20
2023-04-02T15:24:21.766Z,3.70
2023-04-02T15:27:14.697Z,4.50
2023-04-02T15:30:05.252Z,4.70
2023-04-02T15:32:39.727Z,4.20
2023-04-02T15:35:11.557Z,4.50
2023-04-02T15:37:45.648Z,7.10
2023-04-02T15:40:16.604Z,5.10
2023-04-02T15:42:52.434Z,4.80
2023-04-02T15:45:46.456Z,4.90
2023-04-02T15:48:39.387Z,7.60
2023-04-02T15:51:11.280Z,7.90
2023-04-02T15:54:02.692Z,6.60
2023-04-02T15:56:33.351Z,7.50
2023-04-02T15:59:19.241Z,6.70
2023-04-02T16:02:00.320Z,10.20
2023-04-02T16:05:21.912Z,8.70
2023-04-02T16:08:09.226Z,12.90
2023-04-02T16:10:42.396Z,16.30
2023-04-02T16:13:26.892Z,9.00
2023-04-02T16:16:18.000Z,11.90
2023-04-02T16:19:01.383Z,7.00
2023-04-02T16:21:32.910Z,10.60
2023-04-02T16:24:13.548Z,12.40
2023-04-02T16:27:08.925Z,9.50
2023-04-02T16:29:54.993Z,7.50
2023-04-02T16:32:42.049Z,10.20
2023-04-02T16:35:42.656Z,8.90
2023-04-02T16:38:31.816Z,8.70
2023-04-02T16:41:09.683Z,8.40
2023-04-02T16:43:45.560Z,12.60
2023-04-02T16:46:40.306Z,9.80
2023-04-02T16:49:12.595Z,11.60
2023-04-02T16:52:04.889Z,13.30
2023-04-02T16:54:39.549Z,11.00
2023-04-02T16:57:22.789Z,11.80
2023-04-02T16:59:56.817Z,11.30
2023-04-02T17:02:51.624Z,13.90
2023-04-02T17:05:32.666Z,17.40
2023-04-02T17:08:09.857Z,14.40
2023-04-02T17:10:49.988Z,11.90
2023-04-02T17:13:25.930Z,6.90
2023-04-02T17:16:04.286Z,7.50
2023-04-02T17:18:35.751Z,9.70
2023-04-02T17:21:06.043Z,6.10
2023-04-02T17:23:52.965Z,8.40
2023-04-02T17:26:27.114Z,9.50
2023-04-02T17:28:56.307Z,9.80
2023-04-02T17:31:26.120Z,16.10
2023-04-02T17:33:54.222Z,11.60
2023-04-02T17:36:32.775Z,7.90
2023-04-02T17:39:16.801Z,9.40
2023-04-02T17:41:56.350Z,8.30
2023-04-02T17:44:52.765Z,6.50
2023-04-02T17:47:22.258Z,14.50
2023-04-02T17:50:14.871Z,13.20
2023-04-02T17:53:11.650Z,8.20
2023-04-02T17:56:33.845Z,6.10
2023-04-02T17:59:27.389Z,8.90
2023-04-02T18:02:17.471Z,6.60
2023-04-02T18:05:00.886Z,5.80
2023-04-02T18:07:40.872Z,7.50
2023-04-02T18:10:19.173Z,4.40
2023-04-02T18:13:05.745Z,5.70
2023-04-02T18:15:59.580Z,4.20
2023-04-02T18:18:40.538Z,5.30
2023-04-02T18:21:26.541Z,6.00
2023-04-02T18:24:13.220Z,7.30
2023-04-02T18:27:08.946Z,7.30
2023-04-02T18:30:05.569Z,7.20
2023-04-02T18:33:07.662Z,7.60
2023-04-02T18:35:39.207Z,6.30
2023-04-02T18:38:31.707Z,5.20
2023-04-02T18:41:14.981Z,5.30
2023-04-02T18:43:52.131Z,5.90
2023-04-02T18:46:30.549Z,7.70
2023-04-02T18:49:23.740Z,3.80
2023-04-02T18:51:57.546Z,4.50
2023-04-02T18:54:33.054Z,5.20
2023-04-02T18:57:02.021Z,5.30
2023-04-02T18:59:34.921Z,3.70
2023-04-02T19:02:22.296Z,3.60
2023-04-02T19:04:58.114Z,3.50
2023-04-02T19:07:28.704Z,3.10
2023-04-02T19:09:58.345Z,2.60
2023-04-02T19:12:26.308Z,3.90
2023-04-02T19:14:56.313Z,3.60
2023-04-02T19:17:30.963Z,5.30
2023-04-02T19:20:22.830Z,4.70
2023-04-02T19:23:11.039Z,3.10
2023-04-02T19:25:49.507Z,6.00
2023-04-02T19:28:31.107Z,2.00
2023-04-02T19:31:23.826Z,2.70
2023-04-02T19:34:03.304Z,2.40
2023-04-02T19:36:45.852Z,1.60
2023-04-02T19:39:17.035Z,3.40
2023-04-02T19:42:00.282Z,2.00
2023-04-02T19:44:28.202Z,2.30
2023-04-02T19:46:56.126Z,1.70
2023-04-02T19:49:30.451Z,3.20
2023-04-02T19:51:58.607Z,1.90
2023-04-02T19:54:26.602Z,1.30
2023-04-02T19:56:54.652Z,2.40
2023-04-02T19:59:24.975Z,1.40
2023-04-02T20:01:52.978Z,3.00
2023-04-02T20:04:21.133Z,2.10
2023-04-02T20:06:52.406Z,1.40
2023-04-02T20:09:21.800Z,1.90
2023-04-02T20:11:49.888Z,3.60
2023-04-02T20:14:17.997Z,1.60
2023-04-02T20:16:47.006Z,2.40
2023-04-02T20:19:14.987Z,3.70
2023-04-02T20:21:47.007Z,1.30
2023-04-02T20:24:15.057Z,1.50
2023-04-02T20:26:43.062Z,1.10
2023-04-02T20:29:14.257Z,1.10
2023-04-02T20:31:42.481Z,2.80
2023-04-02T20:34:10.562Z,1.30
2023-04-02T20:36:39.270Z,1.70
2023-04-02T20:39:09.126Z,3.10
2023-04-02T20:41:37.969Z,1.80
2023-04-02T20:44:09.630Z,1.30
2023-04-02T20:46:38.031Z,4.30
2023-04-02T20:49:06.063Z,1.80
2023-04-02T20:51:35.181Z,1.50
2023-04-02T20:54:03.296Z,2.00
2023-04-02T20:56:37.370Z,1.90
2023-04-02T20:59:05.237Z,1.10
2023-04-02T21:01:33.080Z,2.60
2023-04-02T21:04:02.310Z,3.20
2023-04-02T21:06:32.163Z,1.30
2023-04-02T21:09:02.004Z,2.10
2023-04-02T21:11:30.232Z,1.80
2023-04-02T21:13:58.409Z,2.40
2023-04-02T21:16:31.498Z,2.40
2023-04-02T21:19:01.114Z,2.60
2023-04-02T21:21:29.437Z,5.60
2023-04-02T21:24:01.707Z,4.90
2023-04-02T21:26:32.441Z,7.70
2023-04-02T21:29:01.473Z,7.00
2023-04-02T21:31:30.992Z,7.70
2023-04-02T21:33:59.592Z,6.00
2023-04-02T21:36:32.765Z,2.70
2023-04-02T21:39:02.511Z,3.30
2023-04-02T21:41:32.806Z,3.00
2023-04-02T21:44:03.361Z,3.90
2023-04-02T21:46:33.583Z,2.70
2023-04-02T21:49:01.873Z,4.00
2023-04-02T21:51:31.586Z,5.80
2023-04-02T21:54:01.683Z,4.90
2023-04-02T21:56:31.422Z,2.40
2023-04-02T21:59:01.906Z,4.60
2023-04-02T22:01:31.834Z,2.90
2023-04-02T22:04:01.562Z,3.90
2023-04-02T22:06:31.802Z,4.20
2023-04-02T22:09:01.172Z,6.00
2023-04-02T22:11:36.256Z,5.90
2023-04-02T22:14:04.585Z,8.70
2023-04-02T22:16:33.635Z,4.80
2023-04-02T22:19:06.087Z,5.20
2023-04-02T22:21:34.183Z,5.30
2023-04-02T22:24:05.783Z,6.00
2023-04-02T22:26:35.163Z,4.50
2023-04-02T22:29:03.584Z,8.30
2023-04-02T22:31:33.595Z,4.30
2023-04-02T22:34:02.441Z,3.40
2023-04-02T22:36:30.719Z,3.20
2023-04-02T22:39:01.072Z,2.90
2023-04-02T22:41:29.428Z,9.20
2023-04-02T22:43:58.092Z,2.90
2023-04-02T22:46:26.794Z,3.70
2023-04-02T22:48:54.987Z,3.80
2023-04-02T22:51:24.387Z,5.50
2023-04-02T22:53:53.494Z,3.80
2023-04-02T22:56:26.729Z,3.50
2023-04-02T22:58:54.767Z,4.80
2023-04-02T23:01:28.213Z,6.60
2023-04-02T23:03:56.445Z,3.90
2023-04-02T23:06:24.565Z,4.00
2023-04-02T23:08:52.751Z,4.80
2023-04-02T23:11:22.747Z,5.00
2023-04-02T23:13:53.223Z,4.20
2023-04-02T23:16:21.420Z,4.00
2023-04-02T23:18:49.395Z,4.50
2023-04-02T23:21:18.292Z,5.40
2023-04-02T23:23:46.458Z,3.80
2023-04-02T23:26:27.279Z,6.50
2023-04-02T23:28:55.322Z,5.60
2023-04-02T23:31:23.510Z,5.20
2023-04-02T23:33:51.965Z,6.70
2023-04-02T23:36:38.462Z,5.40
2023-04-02T23:39:09.621Z,5.10
2023-04-02T23:41:38.897Z,7.10
2023-04-02T23:44:07.089Z,6.00
2023-04-02T23:46:35.482Z,6.00
2023-04-02T23:49:03.533Z,5.00
2023-04-02T23:51:32.380Z,5.10
2023-04-02T23:54:00.637Z,6.30
2023-04-02T23:56:29.164Z,6.80
2023-04-02T23:58:57.830Z,8.50
